Hlavní strana
METAR-TAF:

METAR-TAF

Letiště :

Niamey, Niger

zeměpisná šířka: 13-29N, zeměpisná délka: 002-10E, výška: 223 m

Aktuální stav počasí

Zpráva byla vytvořena před 40 minutami, v 20:00 UTC
Severoseverovýchodní vítr 9 kt
Teplota 31°C
Vlhkost vzduchu 12%
Tlak 1009 hPa
Viditelnost 10 km a více
Žádná oblačnost pod 1500 m, nevyskytují se cumulonimby.

METAR: DRRN 122000Z 03009KT CAVOK 31/M02 Q1009 NOSIG

Čas: 21:40 (20:40 UTC)

Předpověď počasí

Zpráva byla vytvořena před 3 hodinami a 40 minutami, v 17:00 UTC
Předpověď platná od 12 v 18 UTC do 13 v 24 UTC
Východoseverovýchodní vítr 10 kt
Viditelnost: 8000 m
Dočasný
od 13 v 06 UTC do 13 v 08 UTC
Viditelnost: 3500 m
rozsáhlý prach

TAF: DRRN 121700Z 1218/1324 06010KT 8000 NSC TEMPO 1306/1308 3500 DU

Stav a předpovědi počasí z více než 4 000 letišť (zprávy METAR a TAF).

Červené a žluté tečky na mapě představují dostupné meteorologické stanice.

Když kurzor umístíte na tečku, zobrazí se název stanice.

Pak kliknutím zobrazíte stav a předpověď počasí.

Chcete-li změnit mapu, kliknutím na zelené tlačítko se znaménkem +mapu přiblížíte, kliknutím na zelené tlačítko se znaménkem – mapu oddálíte a kliknutím na zelené šipky přejdete na sousední mapy.


METAR-TAF: